Latest Weather Observations for Laverton

IDW60801

Issued at 10:02 am WST Saturday 25 April 2015 (issued every 30 minutes, with the page automatically refreshed every 10 minutes)

About weather observations | Map of weather stations | Latest weather observations for WA | Other Formats
Station Details ID: 012305 Name: LAVERTON AERO Lat: -28.61 Lon: 122.42 Height: 464.3 m
Data from the previous 72 hours. | See also: Recent months at Laverton
Date/Time
WST
Temp
°C
App
Temp
°C
Dew
Point
Rel
Hum
%
Delta-T
°C
Wind Press
QNH
hPa
Press
MSL
hPa
Rain
since 9 am
mm
Dir
 
Spd
km/h
Gust
km/h
Spd
kts
Gust
kts
25/10:00am 15.9 10.0 5.8 51 5.0 ENE 26 35 14 19 1027.5 1025.7 0.0
25/09:30am 14.4 8.1 5.5 55 4.3 E 28 35 15 19 1027.5 1025.7 0.0
25/09:00am 13.9 8.6 5.0 55 4.2 E 22 32 12 17 1027.7 1025.9 0.0
25/08:30am 13.3 7.7 5.2 58 3.9 ENE 24 30 13 16 1027.7 1025.9 0.0
25/08:00am 12.4 8.3 4.6 59 3.6 E 15 20 8 11 1027.5 1025.7 0.0
25/07:30am 11.3 7.6 4.7 64 3.1 E 13 17 7 9 1027.3 1025.5 0.0
25/07:00am 8.9 5.9 4.3 73 2.1 E 9 11 5 6 1027.0 1025.2 0.0
25/06:30am 6.7 3.6 3.7 81 1.3 ENE 9 11 5 6 1026.7 1024.8 0.0
25/06:00am 7.2 5.1 3.8 79 1.5 SE 4 9 2 5 1026.7 1024.8 0.0
25/05:30am 8.0 5.3 3.7 74 1.9 ESE 7 11 4 6 1026.6 1024.7 0.0
25/05:00am 8.3 5.3 3.9 74 1.9 ESE 9 13 5 7 1026.3 1024.4 0.0
25/04:30am 6.8 3.6 3.2 78 1.6 E 9 11 5 6 1026.0 1024.1 0.0
25/04:00am 7.0 3.9 3.4 78 1.6 ENE 9 11 5 6 1026.0 1024.1 0.0
25/03:30am 7.5 4.4 3.4 75 1.8 ENE 9 11 5 6 1026.0 1024.1 0.0
25/03:00am 9.2 5.7 3.6 68 2.5 ESE 11 13 6 7 1025.9 1024.0 0.0
25/02:30am 9.5 5.7 3.7 67 2.6 ESE 13 17 7 9 1026.0 1024.1 0.0
25/02:00am 9.5 5.7 3.7 67 2.6 ESE 13 15 7 8 1026.1 1024.2 0.0
25/01:30am 9.9 6.0 3.4 64 2.9 ESE 13 15 7 8 1026.2 1024.3 0.0
25/01:00am 10.4 6.5 3.4 62 3.1 ESE 13 17 7 9 1026.3 1024.4 0.0
25/12:30am 10.7 6.8 3.5 61 3.2 ESE 13 17 7 9 1026.3 1024.4 0.0
25/12:00am 11.3 7.1 3.6 59 3.5 ESE 15 19 8 10 1026.1 1024.2 0.0
 
Date/Time
WST
Temp
°C
App
Temp
°C
Dew
Point
Rel
Hum
%
Delta-T
°C
Wind Press
QNH
hPa
Press
MSL
hPa
Rain
since 9 am
mm
Dir
 
Spd
km/h
Gust
km/h
Spd
kts
Gust
kts
24/11:30pm 11.6 6.9 3.4 57 3.7 ESE 17 20 9 11 1026.0 1024.1 0.0
24/11:00pm 11.8 7.1 3.3 56 3.8 ESE 17 20 9 11 1025.9 1024.0 0.0
24/10:30pm 12.2 7.5 3.2 54 4.1 ESE 17 22 9 12 1026.1 1024.2 0.0
24/10:00pm 12.7 7.6 2.8 51 4.4 E 19 24 10 13 1026.2 1024.3 0.0
24/09:30pm 13.2 8.0 2.4 48 4.9 ESE 19 22 10 12 1026.3 1024.4 0.0
24/09:00pm 13.6 8.2 2.2 46 5.1 ESE 20 28 11 15 1025.9 1024.0 0.0
24/08:30pm 14.0 8.6 2.3 45 5.3 SE 20 26 11 14 1026.2 1024.3 0.0
24/08:00pm 14.4 8.5 2.0 43 5.6 SE 22 30 12 16 1025.9 1024.0 0.0
24/07:30pm 14.6 9.7 1.8 42 5.8 SE 17 22 9 12 1025.5 1023.7 0.0
24/07:00pm 15.0 10.1 1.9 41 5.9 SE 17 19 9 10 1025.3 1023.5 0.0
24/06:30pm 15.5 10.5 1.6 39 6.3 SE 17 20 9 11 1025.3 1023.5 0.0
24/06:00pm 16.2 11.2 1.5 37 6.6 SE 17 22 9 12 1025.1 1023.3 0.0
24/05:30pm 16.8 11.5 1.7 36 6.9 SE 19 28 10 15 1024.7 1022.8 0.0
24/05:00pm 17.6 12.3 1.6 34 7.3 SE 19 26 10 14 1024.5 1022.6 0.0
24/04:30pm 17.9 12.0 1.4 33 7.6 SE 22 30 12 16 1024.4 1022.5 0.0
24/04:00pm 18.2 12.2 0.8 31 7.9 SE 22 32 12 17 1024.2 1022.3 0.0
24/03:30pm 18.8 13.2 1.3 31 8.1 SE 20 32 11 17 1024.3 1022.4 0.0
24/03:00pm 18.7 13.4 1.7 32 7.8 SE 19 28 10 15 1024.3 1022.4 0.0
24/02:30pm 18.3 12.0 1.3 32 7.8 ESE 24 33 13 18 1024.3 1022.4 0.0
24/02:00pm 17.7 11.9 2.1 35 7.2 SE 22 32 12 17 1024.3 1022.4 0.0
24/01:30pm 17.4 11.2 2.2 36 7.0 SE 24 33 13 18 1024.3 1022.4 0.0
24/01:00pm 18.2 12.3 4.0 39 6.8 SE 24 35 13 19 1024.4 1022.5 0.0
24/12:30pm 16.8 10.8 3.1 40 6.4 ESE 24 35 13 19 1024.9 1023.0 0.0
24/12:00pm 16.3 10.6 4.7 46 5.6 ESE 24 35 13 19 1025.2 1023.4 0.0
24/11:30am 16.4 10.7 6.5 52 5.0 ESE 26 37 14 20 1025.8 1023.9 0.0
24/11:00am 15.5 10.1 6.2 54 4.6 ESE 24 32 13 17 1026.2 1024.3 0.0
24/10:30am 15.6 10.7 6.9 56 4.4 ESE 22 35 12 19 1026.6 1024.7 0.0
24/10:00am 14.5 9.2 6.8 60 3.8 SE 24 30 13 16 1026.9 1025.1 0.0
24/09:30am 13.5 7.9 7.1 65 3.2 ESE 26 35 14 19 1027.0 1025.2 0.0
24/09:00am 12.8 6.4 6.8 67 2.9 ESE 30 37 16 20 1027.0 1025.2 0.0
24/08:30am 12.5 6.1 6.8 68 2.8 SE 30 37 16 20 1027.0 1025.2 0.0
24/08:00am 12.0 6.7 6.9 71 2.5 SE 24 33 13 18 1027.2 1025.4 0.0
24/07:30am 11.6 5.5 6.7 72 2.4 SE 28 35 15 19 1026.8 1024.9 0.0
24/07:00am 11.5 6.9 6.6 72 2.4 SE 20 28 11 15 1026.4 1024.5 0.0
24/06:30am 11.2 6.7 6.3 72 2.4 SE 19 24 10 13 1025.9 1024.0 0.0
24/06:00am 11.4 6.9 6.3 71 2.4 SE 19 24 10 13 1025.2 1023.4 0.0
24/05:30am 11.8 7.2 6.5 70 2.6 SE 20 28 11 15 1024.9 1023.0 0.0
24/05:00am 12.0 8.1 6.9 71 2.5 SSE 17 20 9 11 1024.7 1022.8 0.0
24/04:30am 12.3 8.5 7.4 72 2.4 SSE 17 20 9 11 1024.3 1022.4 0.0
24/04:00am 12.7 8.9 7.4 70 2.6 SSE 17 22 9 12 1023.9 1022.0 0.0
24/03:30am 13.3 10.4 8.2 71 2.6 SSE 13 19 7 10 1023.8 1021.9 0.0
24/03:00am 13.9 9.3 8.3 69 2.9 SE 22 32 12 17 1023.5 1021.6 0.0
24/02:30am 14.2 9.7 8.4 68 3.0 SE 22 30 12 16 1023.5 1021.6 0.0
24/02:00am 14.3 10.1 7.4 63 3.5 SSE 19 26 10 14 1023.5 1021.6 0.0
24/01:30am 14.7 10.5 7.3 61 3.7 SE 19 24 10 13 1023.6 1021.7 0.0
24/01:00am 15.3 10.8 6.1 54 4.5 SE 19 24 10 13 1023.7 1021.8 0.0
24/12:30am 15.5 10.7 4.5 48 5.3 SSE 19 24 10 13 1023.4 1021.5 0.0
24/12:00am 16.3 11.4 5.0 47 5.5 SE 20 26 11 14 1023.0 1021.2 0.0
 
Date/Time
WST
Temp
°C
App
Temp
°C
Dew
Point
Rel
Hum
%
Delta-T
°C
Wind Press
QNH
hPa
Press
MSL
hPa
Rain
since 9 am
mm
Dir
 
Spd
km/h
Gust
km/h
Spd
kts
Gust
kts
23/11:30pm 16.1 12.0 4.5 46 5.6 SSE 15 20 8 11 1022.9 1021.0 0.0
23/11:00pm 15.5 11.8 4.2 47 5.4 SSE 13 17 7 9 1022.6 1020.7 0.0
23/10:30pm 16.0 11.9 4.1 45 5.7 SSE 15 20 8 11 1022.7 1020.8 0.0
23/10:00pm 14.6 11.5 5.4 54 4.4 SSE 11 13 6 7 1022.6 1020.7 0.0
23/09:30pm 14.7 12.6 6.8 59 3.9 SSE 7 11 4 6 1022.3 1020.4 0.0
23/09:00pm 15.0 13.1 6.6 57 4.2 ESE 6 7 3 4 1022.3 1020.4 0.0
23/08:30pm 16.1 14.0 6.0 51 5.0 ESE 6 7 3 4 1022.3 1020.4 0.0
23/08:00pm 15.7 13.1 6.2 53 4.7 E 9 11 5 6 1022.1 1020.2 0.0
23/07:30pm 16.8 14.9 6.6 51 5.1 SSE 6 6 3 3 1022.0 1020.1 0.0
23/07:00pm 18.9 16.4 5.0 40 6.9 S 7 9 4 5 1021.5 1019.6 0.0
23/06:30pm 20.2 17.2 4.3 35 7.8 S 9 9 5 5 1021.4 1019.5 0.0
23/06:00pm 21.2 17.9 4.3 33 8.4 SSE 11 15 6 8 1021.1 1019.1 0.0
23/05:30pm 22.1 17.1 3.7 30 9.1 SSE 19 22 10 12 1020.8 1018.9 0.0
23/05:00pm 22.9 17.7 3.4 28 9.6 SSE 20 28 11 15 1020.3 1018.4 0.0
23/04:30pm 23.2 19.1 4.2 29 9.6 SSW 15 22 8 12 1020.2 1018.3 0.0
23/04:00pm 23.3 19.7 4.8 30 9.4 SSW 13 19 7 10 1020.3 1018.4 0.0
23/03:30pm 23.2 19.2 4.7 30 9.4 SSE 15 28 8 15 1020.2 1018.3 0.0
23/03:00pm 23.5 18.5 4.5 29 9.6 ESE 20 32 11 17 1020.3 1018.4 0.0
23/02:30pm 22.9 17.3 3.4 28 9.6 ESE 22 33 12 18 1020.2 1018.3 0.0
23/02:00pm 22.3 18.7 4.8 32 8.8 SSE 13 24 7 13 1020.2 1018.3 0.0
23/01:30pm 22.5 18.6 5.4 33 8.8 SE 15 24 8 13 1020.4 1018.5 0.0
23/01:00pm 21.9 18.3 6.6 37 8.0 E 15 22 8 12 1020.7 1018.8 0.0
23/12:30pm 21.2 18.8 7.1 40 7.4 ESE 9 22 5 12 1021.2 1019.3 0.0
23/12:00pm 20.0 17.5 6.7 42 6.8 SE 9 15 5 8 1021.8 1019.9 0.0
23/11:30am 19.4 16.3 7.2 45 6.3 SSE 13 24 7 13 1022.0 1020.1 0.0
23/11:00am 18.7 16.3 7.2 47 5.9 SSE 9 15 5 8 1022.5 1020.6 0.0
23/10:30am 18.4 16.7 7.5 49 5.7 SW 6 13 3 7 1022.9 1021.0 0.0
23/10:00am 17.0 15.3 7.6 54 4.8 S 6 13 3 7 1023.2 1021.4 0.0
23/09:30am 16.6 15.4 8.1 57 4.4 S 4 9 2 5 1023.4 1021.5 0.0
23/09:00am 16.2 15.7 9.4 64 3.6 SW 2 7 1 4 1023.5 1021.6 0.0
23/08:30am 14.8 14.1 8.7 67 3.2 NE 2 6 1 3 1023.5 1021.6 0.0
23/08:00am 14.7 14.6 9.3 70 2.8 CALM 0 6 0 3 1023.2 1021.4 0.0
23/07:30am 12.8 11.5 9.3 79 1.8 ENE 6 7 3 4 1022.9 1021.0 0.0
23/07:00am 10.4 8.3 8.2 86 1.1 ENE 9 11 5 6 1022.7 1020.8 0.0
23/06:30am 8.7 6.0 7.3 91 0.7 E 11 11 6 6 1022.4 1020.5 0.0
23/06:00am 8.1 7.4 6.9 92 0.6 CALM 0 0 0 0 1022.3 1020.4 0.0
23/05:30am 8.5 7.4 7.0 90 0.7 E 2 6 1 3 1021.9 1020.0 0.0
23/05:00am 8.4 6.4 6.9 90 0.7 ENE 7 9 4 5 1021.7 1019.8 0.0
23/04:30am 8.6 6.5 6.7 88 0.9 E 7 9 4 5 1021.5 1019.6 0.0
23/04:00am 9.0 7.0 7.0 87 1.0 E 7 9 4 5 1021.3 1019.4 0.0
23/03:30am 9.3 8.7 7.3 87 1.0 CALM 0 0 0 0 1021.1 1019.1 0.0
23/03:00am 9.2 7.2 7.3 88 0.9 NNE 7 9 4 5 1020.8 1018.9 0.0
23/02:30am 9.5 6.8 7.3 86 1.1 NNE 11 11 6 6 1020.7 1018.8 0.0
23/02:00am 9.4 7.4 7.0 85 1.2 NNE 7 9 4 5 1020.8 1018.9 0.0
23/01:30am 10.2 9.6 7.3 82 1.4 CALM 0 0 0 0 1021.1 1019.1 0.0
23/01:00am 10.6 10.0 7.5 81 1.5 CALM 0 0 0 0 1021.4 1019.5 0.0
23/12:30am 10.6 10.0 7.3 80 1.6 CALM 0 0 0 0 1021.4 1019.5 0.0
23/12:00am 10.2 8.4 7.1 81 1.5 N 6 7 3 4 1021.4 1019.5 0.0
 
Date/Time
WST
Temp
°C
App
Temp
°C
Dew
Point
Rel
Hum
%
Delta-T
°C
Wind Press
QNH
hPa
Press
MSL
hPa
Rain
since 9 am
mm
Dir
 
Spd
km/h
Gust
km/h
Spd
kts
Gust
kts
22/11:30pm 10.3 8.5 7.2 81 1.5 N 6 9 3 5 1021.3 1019.4 0.0
22/11:00pm 10.5 8.1 7.2 80 1.6 NNE 9 13 5 7 1021.4 1019.5 0.0
22/10:30pm 11.0 9.6 7.1 77 1.9 NE 4 9 2 5 1021.6 1019.7 0.0
22/10:00pm 12.1 11.5 7.2 72 2.4 CALM 0 0 0 0 1022.0 1020.1 0.0
22/09:30pm 12.2 10.4 7.1 71 2.5 NE 6 9 3 5 1022.1 1020.2 0.0
22/09:00pm 12.8 10.5 7.3 69 2.7 NNE 9 9 5 5 1022.4 1020.5 0.0
22/08:30pm 13.5 11.2 7.3 66 3.1 NNE 9 11 5 6 1022.6 1020.7 0.0
22/08:00pm 13.9 11.2 7.2 64 3.3 N 11 13 6 7 1022.6 1020.7 0.0
22/07:30pm 14.2 11.8 7.0 62 3.6 N 9 11 5 6 1022.5 1020.6 0.0
22/07:00pm 15.2 12.8 7.0 58 4.1 N 9 9 5 5 1022.1 1020.2 0.0
22/06:30pm 16.3 15.5 6.7 53 4.8 CALM 0 0 0 0 1022.0 1020.1 0.0
22/06:00pm 16.9 16.0 6.1 49 5.4 CALM 0 0 0 0 1021.7 1019.8 0.0
22/05:30pm 17.3 15.9 5.6 46 5.8 NE 2 6 1 3 1021.6 1019.7 0.0
22/05:00pm 18.0 14.8 5.2 43 6.3 NNE 11 15 6 8 1021.4 1019.5 0.0
22/04:30pm 18.0 14.4 5.2 43 6.3 NNE 13 15 7 8 1021.4 1019.5 0.0
22/04:00pm 18.4 15.6 5.3 42 6.5 N 9 13 5 7 1021.3 1019.4 0.0
22/03:30pm 18.5 14.9 5.0 41 6.7 NNE 13 17 7 9 1021.2 1019.3 0.0
22/03:00pm 18.4 15.6 5.3 42 6.5 NE 9 13 5 7 1021.3 1019.4 0.0
22/02:30pm 17.9 14.3 4.8 42 6.4 NNE 13 20 7 11 1021.3 1019.4 0.0
22/02:00pm 18.2 14.0 4.0 39 6.8 NNE 15 24 8 13 1021.2 1019.3 0.0
22/01:30pm 17.9 13.8 4.5 41 6.5 N 15 22 8 12 1021.5 1019.6 0.0
22/01:00pm 18.0 13.0 4.6 41 6.5 N 20 30 11 16 1021.6 1019.7 0.0
22/12:30pm 18.6 13.5 3.3 36 7.3 NE 19 24 10 13 1022.2 1020.3 0.0
22/12:00pm 18.3 13.6 3.0 36 7.2 NE 17 24 9 13 1022.4 1020.5 0.0
22/11:30am 17.9 12.5 2.2 35 7.3 NNE 20 28 11 15 1022.8 1020.9 0.0
22/11:00am 18.2 13.2 1.3 32 7.7 NNE 17 22 9 12 1023.1 1021.3 0.0
22/10:30am 19.7 14.4 1.7 30 8.4 NNE 19 24 10 13 1023.4 1021.5 0.0

Other Formats:

Comma delimited format used in spreadsheet applications
http://www.bom.gov.au/fwo/IDW60801/IDW60801.94449.axf

JavaScript Object Notation format (JSON) in row-major order
http://www.bom.gov.au/fwo/IDW60801/IDW60801.94449.json